createdAt,value
2022-12-04T00:01:21.375Z,64.18
2022-12-04T00:03:52.048Z,59.42
2022-12-04T00:06:20.840Z,58.70
2022-12-04T00:08:48.507Z,65.57
2022-12-04T00:11:18.441Z,64.30
2022-12-04T00:13:46.181Z,63.05
2022-12-04T00:16:17.309Z,70.45
2022-12-04T00:18:44.879Z,66.00
2022-12-04T00:21:14.628Z,60.50
2022-12-04T00:23:42.681Z,62.80
2022-12-04T00:26:12.813Z,64.80
2022-12-04T00:28:40.604Z,61.80
2022-12-04T00:31:11.020Z,59.92
2022-12-04T00:33:38.751Z,68.57
2022-12-04T00:36:09.989Z,59.60
2022-12-04T00:38:38.159Z,65.78
2022-12-04T00:41:07.746Z,63.85
2022-12-04T00:43:34.806Z,59.70
2022-12-04T00:46:02.320Z,67.82
2022-12-04T00:48:29.580Z,68.28
2022-12-04T00:51:01.186Z,60.85
2022-12-04T00:53:29.035Z,61.45
2022-12-04T00:55:56.472Z,71.30
2022-12-04T00:58:23.795Z,60.85
2022-12-04T01:00:51.252Z,64.05
2022-12-04T01:03:18.840Z,75.95
2022-12-04T01:05:46.319Z,63.03
2022-12-04T01:08:13.463Z,66.28
2022-12-04T01:10:42.403Z,71.35
2022-12-04T01:13:09.622Z,66.28
2022-12-04T01:15:42.550Z,72.90
2022-12-04T01:18:13.555Z,59.13
2022-12-04T01:20:46.159Z,67.28
2022-12-04T01:23:13.248Z,65.40
2022-12-04T01:25:40.564Z,62.38
2022-12-04T01:28:07.654Z,59.92
2022-12-04T01:30:34.980Z,57.67
2022-12-04T01:33:02.033Z,63.10
2022-12-04T01:35:29.365Z,59.55
2022-12-04T01:37:56.417Z,59.47
2022-12-04T01:40:23.835Z,58.22
2022-12-04T01:42:50.923Z,63.10
2022-12-04T01:45:38.992Z,64.00
2022-12-04T01:48:28.047Z,54.75
2022-12-04T01:51:16.552Z,64.90
2022-12-04T01:53:49.617Z,57.40
2022-12-04T01:56:18.058Z,60.47
2022-12-04T01:58:51.528Z,56.15
2022-12-04T02:01:19.264Z,61.80
2022-12-04T02:03:46.531Z,64.90
2022-12-04T02:06:13.911Z,59.47
2022-12-04T02:08:41.144Z,60.13
2022-12-04T02:11:46.541Z,61.47
2022-12-04T02:14:28.350Z,60.28
2022-12-04T02:17:08.604Z,61.00
2022-12-04T02:20:06.876Z,60.80
2022-12-04T02:23:05.334Z,61.10
2022-12-04T02:25:43.832Z,66.75
2022-12-04T02:28:31.254Z,56.55
2022-12-04T02:31:01.013Z,61.20
2022-12-04T02:33:59.265Z,61.97
2022-12-04T02:36:31.449Z,54.88
2022-12-04T02:39:18.216Z,54.50
2022-12-04T02:42:12.166Z,59.22
2022-12-04T02:44:45.159Z,48.58
2022-12-04T02:47:14.737Z,60.92
2022-12-04T02:49:47.086Z,58.22
2022-12-04T02:52:18.719Z,60.20
2022-12-04T02:54:51.581Z,60.25
2022-12-04T02:57:28.428Z,56.97
2022-12-04T02:59:58.528Z,57.40
2022-12-04T03:02:32.076Z,60.70
2022-12-04T03:05:04.023Z,50.60
2022-12-04T03:07:38.569Z,53.00
2022-12-04T03:10:27.115Z,58.20
2022-12-04T03:13:03.396Z,56.70
2022-12-04T03:15:37.103Z,63.03
2022-12-04T03:18:10.221Z,47.25
2022-12-04T03:20:39.205Z,57.80
2022-12-04T03:23:14.702Z,49.58
2022-12-04T03:26:24.094Z,47.75
2022-12-04T03:29:05.219Z,44.97
2022-12-04T03:31:58.647Z,50.00
2022-12-04T03:34:33.172Z,48.22
2022-12-04T03:37:06.145Z,56.63
2022-12-04T03:39:39.455Z,53.55
2022-12-04T03:42:15.636Z,48.72
2022-12-04T03:45:09.219Z,52.55
2022-12-04T03:47:43.790Z,58.58
2022-12-04T03:50:19.394Z,44.45
2022-12-04T03:52:58.335Z,48.85
2022-12-04T03:55:49.702Z,45.00
2022-12-04T03:58:23.120Z,46.72
2022-12-04T04:00:53.192Z,52.60
2022-12-04T04:03:30.267Z,45.22
2022-12-04T04:06:14.190Z,40.78
2022-12-04T04:08:46.943Z,48.30
2022-12-04T04:11:37.492Z,45.20
2022-12-04T04:14:30.191Z,44.00
2022-12-04T04:17:23.903Z,44.42
2022-12-04T04:20:24.848Z,45.00
2022-12-04T04:23:14.910Z,48.92
2022-12-04T04:25:44.265Z,43.67
2022-12-04T04:28:49.957Z,46.08
2022-12-04T04:31:54.046Z,44.38
2022-12-04T04:34:57.366Z,41.67
2022-12-04T04:37:51.678Z,44.40
2022-12-04T04:40:35.040Z,42.88
2022-12-04T04:43:48.090Z,44.47
2022-12-04T04:46:25.366Z,38.33
2022-12-04T04:48:56.723Z,44.60
2022-12-04T04:51:24.210Z,43.53
2022-12-04T04:53:55.382Z,45.80
2022-12-04T04:56:22.471Z,47.10
2022-12-04T04:58:50.112Z,47.80
2022-12-04T05:01:20.632Z,42.70
2022-12-04T05:03:48.135Z,44.97
2022-12-04T05:06:15.740Z,47.83
2022-12-04T05:08:44.231Z,45.80
2022-12-04T05:11:14.145Z,50.60
2022-12-04T05:13:42.361Z,47.63
2022-12-04T05:16:13.730Z,51.08
2022-12-04T05:19:01.813Z,48.70
2022-12-04T05:21:29.030Z,52.75
2022-12-04T05:23:56.472Z,56.08
2022-12-04T05:26:23.831Z,52.90
2022-12-04T05:28:51.300Z,46.10
2022-12-04T05:31:18.566Z,48.03
2022-12-04T05:33:45.994Z,50.08
2022-12-04T05:36:13.451Z,49.40
2022-12-04T05:38:41.171Z,55.00
2022-12-04T05:41:08.672Z,48.83
2022-12-04T05:43:36.386Z,49.88
2022-12-04T05:46:08.548Z,56.92
2022-12-04T05:48:36.090Z,47.67
2022-12-04T05:51:08.588Z,47.53
2022-12-04T05:53:36.642Z,53.40
2022-12-04T05:56:05.171Z,55.78
2022-12-04T05:58:38.448Z,56.22
2022-12-04T06:01:23.495Z,47.15
2022-12-04T06:03:51.027Z,51.75
2022-12-04T06:06:22.570Z,55.08
2022-12-04T06:08:52.020Z,46.60
2022-12-04T06:11:22.366Z,45.08
2022-12-04T06:13:50.013Z,50.58
2022-12-04T06:16:26.246Z,53.10
2022-12-04T06:18:59.481Z,46.38
2022-12-04T06:21:33.203Z,49.05
2022-12-04T06:24:01.266Z,50.30
2022-12-04T06:26:29.121Z,47.10
2022-12-04T06:28:57.988Z,47.58
2022-12-04T06:31:26.922Z,48.47
2022-12-04T06:33:56.127Z,48.13
2022-12-04T06:36:23.582Z,48.55
2022-12-04T06:38:55.384Z,54.47
2022-12-04T06:41:23.547Z,45.92
2022-12-04T06:43:51.884Z,45.47
2022-12-04T06:46:24.786Z,45.95
2022-12-04T06:48:53.837Z,45.90
2022-12-04T06:51:27.155Z,43.95
2022-12-04T06:53:55.588Z,47.38
2022-12-04T06:56:26.138Z,51.28
2022-12-04T06:58:56.721Z,45.10
2022-12-04T07:01:26.725Z,46.63
2022-12-04T07:03:54.856Z,41.08
2022-12-04T07:06:36.635Z,43.50
2022-12-04T07:09:13.718Z,44.58
2022-12-04T07:14:09.833Z,46.80
2022-12-04T07:16:41.171Z,53.55
2022-12-04T07:19:13.843Z,49.53
2022-12-04T07:21:41.362Z,51.65
2022-12-04T07:24:15.016Z,46.00
2022-12-04T07:26:45.233Z,45.47
2022-12-04T07:29:12.941Z,48.55
2022-12-04T07:31:40.109Z,45.97
2022-12-04T07:34:07.530Z,48.67
2022-12-04T07:36:34.695Z,45.90
2022-12-04T07:39:02.128Z,45.80
2022-12-04T07:41:29.206Z,44.38
2022-12-04T07:43:56.979Z,43.15
2022-12-04T07:46:26.682Z,42.78
2022-12-04T07:48:58.268Z,55.60
2022-12-04T07:51:27.805Z,45.40
2022-12-04T07:54:02.021Z,42.83
2022-12-04T07:59:00.853Z,42.08
2022-12-04T08:01:28.251Z,45.42
2022-12-04T08:03:57.759Z,43.25
2022-12-04T08:06:27.007Z,40.40
2022-12-04T08:08:54.374Z,47.50
2022-12-04T08:11:24.233Z,38.65
2022-12-04T08:14:01.887Z,44.67
2022-12-04T08:16:30.612Z,45.63
2022-12-04T08:18:58.279Z,42.10
2022-12-04T08:21:28.070Z,43.25
2022-12-04T08:23:57.058Z,36.70
2022-12-04T08:26:27.003Z,38.80
2022-12-04T08:28:56.745Z,39.90
2022-12-04T08:31:25.693Z,39.47
2022-12-04T08:33:55.544Z,36.67
2022-12-04T08:36:23.345Z,36.00
2022-12-04T08:38:51.124Z,36.65
2022-12-04T08:41:21.502Z,40.47
2022-12-04T08:43:49.838Z,34.90
2022-12-04T08:46:18.474Z,34.83
2022-12-04T08:48:46.706Z,35.67
2022-12-04T08:51:20.058Z,35.17
2022-12-04T08:53:47.657Z,34.20
2022-12-04T08:56:15.205Z,35.10
2022-12-04T08:58:42.594Z,35.65
2022-12-04T09:01:12.353Z,36.78
2022-12-04T09:03:40.980Z,31.33
2022-12-04T09:06:09.942Z,37.13
2022-12-04T09:08:37.465Z,35.88
2022-12-04T09:11:09.033Z,34.03
2022-12-04T09:13:37.473Z,36.35
2022-12-04T09:16:08.279Z,35.13
2022-12-04T09:18:36.856Z,31.38
2022-12-04T09:21:06.822Z,36.97
2022-12-04T09:23:35.714Z,41.88
2022-12-04T09:26:04.215Z,32.03
2022-12-04T09:28:31.878Z,37.67
2022-12-04T09:31:05.005Z,35.35
2022-12-04T09:33:35.082Z,35.45
2022-12-04T09:36:03.734Z,34.50
2022-12-04T09:38:31.430Z,37.17
2022-12-04T09:41:47.507Z,36.53
2022-12-04T09:44:21.545Z,33.88
2022-12-04T09:47:13.726Z,39.50
2022-12-04T09:49:51.609Z,39.45
2022-12-04T09:52:34.481Z,41.75
2022-12-04T09:55:10.454Z,38.70
2022-12-04T09:58:03.773Z,39.88
2022-12-04T10:00:33.681Z,37.05
2022-12-04T10:03:04.145Z,36.42
2022-12-04T10:06:02.129Z,37.17
2022-12-04T10:08:36.129Z,31.98
2022-12-04T10:11:16.584Z,37.20
2022-12-04T10:13:55.443Z,35.70
2022-12-04T10:16:51.075Z,35.92
2022-12-04T10:19:55.242Z,37.97
2022-12-04T10:22:47.136Z,36.50
2022-12-04T10:25:24.857Z,36.30
2022-12-04T10:28:01.892Z,35.78
2022-12-04T10:30:33.954Z,34.35
2022-12-04T10:33:15.636Z,35.55
2022-12-04T10:35:45.824Z,32.75
2022-12-04T10:38:19.717Z,32.08
2022-12-04T10:40:52.122Z,33.85
2022-12-04T10:43:38.135Z,34.30
2022-12-04T10:46:06.371Z,35.38
2022-12-04T10:48:39.804Z,38.05
2022-12-04T10:51:14.266Z,34.92
2022-12-04T10:53:42.390Z,39.33
2022-12-04T10:56:23.582Z,36.50
2022-12-04T10:59:03.282Z,38.13
2022-12-04T11:01:35.629Z,35.83
2022-12-04T11:04:28.161Z,35.78
2022-12-04T11:07:18.714Z,31.25
2022-12-04T11:09:58.454Z,32.88
2022-12-04T11:12:26.009Z,35.50
2022-12-04T11:15:08.575Z,30.63
2022-12-04T11:17:38.315Z,34.17
2022-12-04T11:20:15.355Z,40.22
2022-12-04T11:22:52.517Z,35.80
2022-12-04T11:25:22.726Z,41.60
2022-12-04T11:27:56.607Z,34.47
2022-12-04T11:30:33.959Z,34.90
2022-12-04T11:33:03.528Z,38.85
2022-12-04T11:35:32.455Z,36.63
2022-12-04T11:38:14.122Z,37.90
2022-12-04T11:40:53.705Z,39.22
2022-12-04T11:43:23.599Z,31.10
2022-12-04T11:46:02.359Z,32.80
2022-12-04T11:48:31.647Z,36.55
2022-12-04T11:51:01.667Z,37.42
2022-12-04T11:53:42.052Z,34.55
2022-12-04T11:56:25.111Z,35.13
2022-12-04T11:59:12.604Z,33.25
2022-12-04T12:01:52.090Z,36.30
2022-12-04T12:04:41.410Z,37.45
2022-12-04T12:07:30.581Z,35.33
2022-12-04T12:10:44.405Z,38.97
2022-12-04T12:13:47.274Z,32.25
2022-12-04T12:16:51.635Z,32.53
2022-12-04T12:19:45.040Z,31.67
2022-12-04T12:22:14.717Z,25.45
2022-12-04T12:24:54.940Z,26.83
2022-12-04T12:27:34.193Z,31.60
2022-12-04T12:30:27.065Z,26.75
2022-12-04T12:33:23.858Z,27.65
2022-12-04T12:36:13.530Z,24.63
2022-12-04T12:39:00.363Z,25.08
2022-12-04T12:41:34.739Z,22.85
2022-12-04T12:44:06.450Z,32.72
2022-12-04T12:46:50.022Z,24.73
2022-12-04T12:49:41.207Z,26.50
2022-12-04T12:52:32.186Z,24.13
2022-12-04T12:55:15.096Z,29.35
2022-12-04T12:57:47.477Z,26.52
2022-12-04T13:00:20.312Z,26.02
2022-12-04T13:03:06.051Z,29.00
2022-12-04T13:05:46.311Z,28.02
2022-12-04T13:08:37.104Z,25.75
2022-12-04T13:11:13.364Z,25.55
2022-12-04T13:13:57.352Z,27.58
2022-12-04T13:16:41.410Z,25.77
2022-12-04T13:19:26.771Z,28.67
2022-12-04T13:22:08.566Z,27.05
2022-12-04T13:25:01.264Z,27.35
2022-12-04T13:27:52.275Z,27.08
2022-12-04T13:30:23.394Z,31.20
2022-12-04T13:33:12.461Z,31.98
2022-12-04T13:35:58.010Z,26.73
2022-12-04T13:38:43.009Z,29.15
2022-12-04T13:41:18.062Z,27.02
2022-12-04T13:43:48.232Z,30.08
2022-12-04T13:46:27.442Z,27.80
2022-12-04T13:48:55.050Z,25.33
2022-12-04T13:51:36.692Z,28.75
2022-12-04T13:54:25.612Z,31.63
2022-12-04T13:56:56.895Z,33.30
2022-12-04T13:59:26.687Z,29.42
2022-12-04T14:02:00.328Z,31.85
2022-12-04T14:04:47.135Z,26.70
2022-12-04T14:07:37.190Z,24.92
2022-12-04T14:10:27.601Z,28.63
2022-12-04T14:13:05.795Z,25.58
2022-12-04T14:15:36.810Z,26.38
2022-12-04T14:18:27.032Z,23.55
2022-12-04T14:21:05.611Z,22.50
2022-12-04T14:23:41.535Z,23.85
2022-12-04T14:26:21.055Z,25.17
2022-12-04T14:28:50.067Z,26.02
2022-12-04T14:31:32.494Z,29.48
2022-12-04T14:34:21.452Z,29.40
2022-12-04T14:36:51.657Z,30.27
2022-12-04T14:39:33.175Z,27.58
2022-12-04T14:42:14.257Z,29.27
2022-12-04T14:44:45.029Z,31.50
2022-12-04T14:47:42.615Z,31.80
2022-12-04T14:50:27.527Z,31.25
2022-12-04T14:53:12.824Z,28.25
2022-12-04T14:56:05.926Z,27.13
2022-12-04T14:58:37.768Z,31.00
2022-12-04T15:01:29.695Z,29.77
2022-12-04T15:04:02.020Z,33.65
2022-12-04T15:06:32.628Z,28.85
2022-12-04T15:09:21.751Z,29.65
2022-12-04T15:12:14.402Z,28.05
2022-12-04T15:14:46.509Z,30.27
2022-12-04T15:17:17.120Z,26.67
2022-12-04T15:19:44.488Z,30.88
2022-12-04T15:22:25.331Z,34.97
2022-12-04T15:24:55.075Z,28.83
2022-12-04T15:27:31.920Z,30.10
2022-12-04T15:32:31.072Z,31.20
2022-12-04T15:35:06.948Z,32.13
2022-12-04T15:37:34.716Z,29.55
2022-12-04T15:40:06.932Z,27.25
2022-12-04T15:42:34.456Z,26.23
2022-12-04T15:45:10.465Z,27.38
2022-12-04T15:47:42.242Z,25.55
2022-12-04T15:50:15.634Z,26.60
2022-12-04T15:53:06.465Z,25.15
2022-12-04T15:55:39.464Z,26.35
2022-12-04T15:58:20.015Z,27.00
2022-12-04T16:00:47.492Z,28.15
2022-12-04T16:03:29.034Z,30.67
2022-12-04T16:06:29.212Z,30.33
2022-12-04T16:08:59.800Z,34.50
2022-12-04T16:11:37.095Z,25.73
2022-12-04T16:14:18.771Z,28.55
2022-12-04T16:16:51.725Z,27.33
2022-12-04T16:19:35.644Z,32.15
2022-12-04T16:22:04.795Z,28.60
2022-12-04T16:24:32.142Z,28.13
2022-12-04T16:27:00.989Z,30.42
2022-12-04T16:29:30.517Z,25.52
2022-12-04T16:32:02.979Z,31.38
2022-12-04T16:34:31.203Z,31.30
2022-12-04T16:36:59.431Z,27.20
2022-12-04T16:39:26.883Z,27.13
2022-12-04T16:41:54.043Z,30.58
2022-12-04T16:44:21.410Z,25.90
2022-12-04T16:46:51.647Z,24.85
2022-12-04T16:49:19.143Z,28.17
2022-12-04T16:51:50.715Z,28.52
2022-12-04T16:54:18.192Z,28.17
2022-12-04T16:56:45.316Z,28.20
2022-12-04T16:59:12.766Z,23.38
2022-12-04T17:01:50.410Z,21.45
2022-12-04T17:04:18.998Z,26.42
2022-12-04T17:06:46.492Z,26.00
2022-12-04T17:09:14.457Z,24.85
2022-12-04T17:11:42.063Z,24.48
2022-12-04T17:14:09.693Z,19.88
2022-12-04T17:16:38.526Z,21.30
2022-12-04T17:19:05.991Z,22.63
2022-12-04T17:21:34.253Z,21.58
2022-12-04T17:24:02.548Z,22.33
2022-12-04T17:26:29.665Z,22.67
2022-12-04T17:28:57.312Z,19.45
2022-12-04T17:31:26.164Z,20.48
2022-12-04T17:33:54.034Z,21.63
2022-12-04T17:36:25.056Z,19.80
2022-12-04T17:38:57.373Z,20.50
2022-12-04T17:41:25.275Z,21.35
2022-12-04T17:43:52.763Z,22.15
2022-12-04T17:46:24.212Z,18.30
2022-12-04T17:48:52.221Z,19.50
2022-12-04T17:51:24.359Z,19.40
2022-12-04T17:53:52.322Z,20.30
2022-12-04T17:56:21.926Z,19.75
2022-12-04T17:58:50.219Z,25.02
2022-12-04T18:01:20.357Z,17.40
2022-12-04T18:03:58.641Z,18.45
2022-12-04T18:06:28.316Z,16.58
2022-12-04T18:08:56.543Z,21.15
2022-12-04T18:11:25.962Z,19.20
2022-12-04T18:14:11.466Z,21.50
2022-12-04T18:16:46.282Z,20.88
2022-12-04T18:19:14.734Z,19.30
2022-12-04T18:21:42.077Z,21.88
2022-12-04T18:24:09.766Z,17.70
2022-12-04T18:26:39.940Z,20.30
2022-12-04T18:29:08.108Z,17.45
2022-12-04T18:31:35.727Z,17.10
2022-12-04T18:34:06.120Z,19.95
2022-12-04T18:36:34.182Z,19.33
2022-12-04T18:39:07.550Z,19.67
2022-12-04T18:41:34.995Z,19.30
2022-12-04T18:44:03.642Z,19.92
2022-12-04T18:46:31.537Z,19.30
2022-12-04T18:49:00.074Z,21.50
2022-12-04T18:51:33.625Z,23.02
2022-12-04T18:54:06.954Z,23.00
2022-12-04T18:56:35.343Z,23.35
2022-12-04T18:59:08.528Z,22.60
2022-12-04T19:01:35.987Z,21.38
2022-12-04T19:04:06.217Z,20.63
2022-12-04T19:06:42.294Z,21.75
2022-12-04T19:09:14.327Z,21.40
2022-12-04T19:11:42.353Z,23.15
2022-12-04T19:14:20.802Z,19.90
2022-12-04T19:16:50.154Z,19.95
2022-12-04T19:19:18.082Z,20.90
2022-12-04T19:21:45.265Z,18.40
2022-12-04T19:24:13.751Z,24.13
2022-12-04T19:26:41.380Z,21.33
2022-12-04T19:29:09.534Z,19.17
2022-12-04T19:31:38.041Z,21.35
2022-12-04T19:34:06.339Z,23.70
2022-12-04T19:36:34.744Z,21.88
2022-12-04T19:39:03.861Z,23.20
2022-12-04T19:41:34.240Z,21.52
2022-12-04T19:44:07.798Z,22.25
2022-12-04T19:46:41.820Z,21.98
2022-12-04T19:49:10.761Z,26.30
2022-12-04T19:51:39.710Z,23.27
2022-12-04T19:54:08.783Z,21.83
2022-12-04T19:56:36.058Z,23.45
2022-12-04T19:59:06.299Z,25.45
2022-12-04T20:01:35.255Z,22.10
2022-12-04T20:04:06.712Z,25.52
2022-12-04T20:06:40.081Z,22.30
2022-12-04T20:09:10.967Z,20.88
2022-12-04T20:11:38.689Z,20.85
2022-12-04T20:14:07.031Z,19.42
2022-12-04T20:16:35.508Z,21.42
2022-12-04T20:19:04.396Z,22.50
2022-12-04T20:21:32.549Z,20.67
2022-12-04T20:24:05.544Z,24.13
2022-12-04T20:26:39.139Z,20.00
2022-12-04T20:29:07.780Z,22.58
2022-12-04T20:31:38.539Z,21.80
2022-12-04T20:34:08.511Z,19.67
2022-12-04T20:36:38.171Z,23.35
2022-12-04T20:39:06.605Z,19.88
2022-12-04T20:41:33.965Z,22.05
2022-12-04T20:44:04.814Z,20.25
2022-12-04T20:46:38.250Z,21.60
2022-12-04T20:49:15.927Z,18.83
2022-12-04T20:51:48.039Z,21.23
2022-12-04T20:54:20.375Z,26.35
2022-12-04T20:56:49.042Z,20.88
2022-12-04T20:59:18.848Z,20.17
2022-12-04T21:01:46.619Z,23.63
2022-12-04T21:04:14.001Z,22.38
2022-12-04T21:06:41.964Z,25.80
2022-12-04T21:09:17.020Z,25.52
2022-12-04T21:11:47.571Z,22.85
2022-12-04T21:14:42.029Z,24.80
2022-12-04T21:17:14.381Z,25.70
2022-12-04T21:19:41.729Z,23.50
2022-12-04T21:22:08.933Z,21.50
2022-12-04T21:24:38.784Z,23.80
2022-12-04T21:27:07.834Z,21.38
2022-12-04T21:29:36.883Z,26.33
2022-12-04T21:32:05.498Z,23.17
2022-12-04T21:34:33.564Z,20.58
2022-12-04T21:37:00.664Z,20.48
2022-12-04T21:39:28.147Z,19.73
2022-12-04T21:42:13.851Z,19.60
2022-12-04T21:44:41.499Z,20.42
2022-12-04T21:47:08.549Z,21.60
2022-12-04T21:49:35.861Z,23.25
2022-12-04T21:52:03.090Z,20.92
2022-12-04T21:54:31.004Z,25.52
2022-12-04T21:56:58.369Z,22.85
2022-12-04T21:59:26.552Z,18.52
2022-12-04T22:01:53.957Z,20.65
2022-12-04T22:04:21.990Z,20.90
2022-12-04T22:06:49.290Z,21.05
2022-12-04T22:09:16.846Z,20.17
2022-12-04T22:11:44.323Z,20.15
2022-12-04T22:14:14.276Z,21.25
2022-12-04T22:16:43.448Z,19.90
2022-12-04T22:19:12.493Z,21.20
2022-12-04T22:21:40.177Z,21.63
2022-12-04T22:24:08.403Z,24.83
2022-12-04T22:26:35.663Z,21.77
2022-12-04T22:29:20.701Z,19.23
2022-12-04T22:31:51.042Z,23.00
2022-12-04T22:34:18.520Z,23.95
2022-12-04T22:36:45.724Z,23.08
2022-12-04T22:39:13.106Z,18.13
2022-12-04T22:41:40.211Z,23.92
2022-12-04T22:44:07.539Z,21.50
2022-12-04T22:46:34.814Z,23.45
2022-12-04T22:49:02.258Z,20.95
2022-12-04T22:51:29.688Z,22.45
2022-12-04T22:53:58.072Z,20.60
2022-12-04T22:56:27.993Z,25.05
2022-12-04T22:58:55.663Z,22.67
2022-12-04T23:01:24.707Z,23.65
2022-12-04T23:03:53.126Z,25.15
2022-12-04T23:06:22.100Z,22.95
2022-12-04T23:08:53.729Z,22.63
2022-12-04T23:11:21.479Z,26.45
2022-12-04T23:13:54.171Z,24.80
2022-12-04T23:16:23.112Z,21.75
2022-12-04T23:18:50.870Z,22.90
2022-12-04T23:21:19.504Z,24.17
2022-12-04T23:23:48.093Z,27.50
2022-12-04T23:26:22.044Z,23.80
2022-12-04T23:28:49.533Z,24.67
2022-12-04T23:31:17.215Z,26.70
2022-12-04T23:33:45.363Z,27.17
2022-12-04T23:36:13.378Z,26.13
2022-12-04T23:38:42.336Z,25.65
2022-12-04T23:41:30.380Z,25.63
2022-12-04T23:43:58.335Z,29.38
2022-12-04T23:46:32.398Z,31.88
2022-12-04T23:49:00.791Z,23.73
2022-12-04T23:51:28.595Z,24.20
2022-12-04T23:53:56.371Z,25.38
2022-12-04T23:56:26.142Z,25.95
2022-12-04T23:58:57.154Z,26.52
